createdAt,value
2017-05-11T00:00:17.968Z,10.10
2017-05-11T00:01:19.399Z,9.93
2017-05-11T00:02:20.817Z,10.10
2017-05-11T00:03:22.239Z,10.09
2017-05-11T00:04:23.668Z,10.07
2017-05-11T00:05:25.090Z,10.18
2017-05-11T00:06:27.395Z,10.15
2017-05-11T00:07:28.820Z,10.00
2017-05-11T00:08:30.247Z,10.12
2017-05-11T00:09:31.675Z,10.12
2017-05-11T00:10:33.085Z,10.17
2017-05-11T00:11:34.521Z,10.06
2017-05-11T00:12:35.945Z,10.10
2017-05-11T00:13:37.366Z,10.04
2017-05-11T00:14:39.774Z,10.09
2017-05-11T00:15:41.189Z,9.86
2017-05-11T00:16:42.615Z,9.81
2017-05-11T00:17:44.048Z,9.82
2017-05-11T00:18:45.473Z,9.83
2017-05-11T00:19:46.902Z,9.76
2017-05-11T00:20:48.330Z,9.68
2017-05-11T00:21:49.757Z,9.73
2017-05-11T00:22:51.180Z,9.70
2017-05-11T00:23:52.599Z,9.70
2017-05-11T00:24:54.016Z,9.73
2017-05-11T00:25:55.435Z,9.68
2017-05-11T00:26:56.858Z,9.64
2017-05-11T00:27:58.283Z,9.67
2017-05-11T00:28:59.705Z,9.64
2017-05-11T00:30:01.124Z,9.75
2017-05-11T00:31:02.546Z,9.64
2017-05-11T00:32:03.973Z,9.70
2017-05-11T00:33:05.398Z,9.60
2017-05-11T00:34:06.824Z,9.42
2017-05-11T00:35:08.249Z,9.40
2017-05-11T00:36:09.675Z,9.52
2017-05-11T00:37:11.093Z,9.53
2017-05-11T00:38:12.517Z,9.52
2017-05-11T00:39:13.943Z,9.40
2017-05-11T00:40:15.367Z,9.50
2017-05-11T00:41:16.790Z,9.50
2017-05-11T00:42:18.208Z,9.53
2017-05-11T00:43:19.636Z,9.52
2017-05-11T00:44:21.073Z,9.52
2017-05-11T00:45:22.489Z,9.48
2017-05-11T00:46:23.918Z,9.49
2017-05-11T00:47:25.336Z,9.53
2017-05-11T00:48:26.757Z,9.38
2017-05-11T00:49:28.189Z,9.45
2017-05-11T00:50:29.614Z,9.42
2017-05-11T00:51:31.040Z,9.30
2017-05-11T00:52:32.460Z,9.45
2017-05-11T00:53:33.876Z,9.40
2017-05-11T00:54:36.044Z,9.34
2017-05-11T00:55:37.465Z,9.31
2017-05-11T00:56:38.888Z,9.35
2017-05-11T00:57:40.314Z,9.52
2017-05-11T00:58:41.734Z,9.50
2017-05-11T00:59:43.158Z,9.52
2017-05-11T01:00:44.579Z,9.38
2017-05-11T01:01:45.995Z,9.39
2017-05-11T01:02:47.418Z,9.27
2017-05-11T01:03:48.842Z,9.24
2017-05-11T01:04:50.263Z,9.35
2017-05-11T01:05:51.687Z,8.94
2017-05-11T01:06:53.114Z,8.91
2017-05-11T01:07:54.539Z,9.04
2017-05-11T01:08:55.956Z,9.15
2017-05-11T01:09:57.374Z,9.21
2017-05-11T01:10:58.797Z,9.21
2017-05-11T01:12:00.217Z,9.10
2017-05-11T01:13:01.646Z,9.16
2017-05-11T01:14:03.075Z,9.02
2017-05-11T01:15:04.516Z,9.20
2017-05-11T01:16:05.933Z,9.09
2017-05-11T01:17:07.357Z,9.15
2017-05-11T01:18:08.790Z,9.04
2017-05-11T01:19:10.218Z,9.28
2017-05-11T01:20:11.643Z,9.21
2017-05-11T01:21:13.066Z,9.10
2017-05-11T01:22:14.492Z,8.72
2017-05-11T01:23:15.928Z,8.93
2017-05-11T01:24:17.335Z,9.06
2017-05-11T01:25:18.758Z,9.01
2017-05-11T01:26:20.179Z,8.90
2017-05-11T01:27:22.183Z,8.96
2017-05-11T01:28:23.605Z,8.94
2017-05-11T01:29:25.027Z,8.83
2017-05-11T01:30:26.449Z,8.93
2017-05-11T01:31:27.873Z,9.02
2017-05-11T01:32:29.290Z,9.10
2017-05-11T01:33:30.707Z,8.86
2017-05-11T01:34:32.129Z,8.69
2017-05-11T01:35:33.556Z,8.57
2017-05-11T01:36:34.978Z,8.66
2017-05-11T01:37:36.401Z,8.42
2017-05-11T01:38:37.825Z,8.53
2017-05-11T01:39:39.251Z,8.63
2017-05-11T01:40:40.667Z,8.62
2017-05-11T01:41:42.087Z,8.53
2017-05-11T01:42:43.514Z,8.47
2017-05-11T01:43:44.936Z,8.66
2017-05-11T01:44:46.359Z,8.36
2017-05-11T01:45:47.790Z,8.50
2017-05-11T01:46:49.219Z,8.42
2017-05-11T01:47:50.639Z,8.58
2017-05-11T01:48:52.069Z,8.60
2017-05-11T01:49:53.482Z,8.68
2017-05-11T01:50:54.901Z,8.75
2017-05-11T01:51:56.325Z,8.66
2017-05-11T01:52:57.740Z,8.68
2017-05-11T01:53:59.168Z,8.47
2017-05-11T01:55:00.591Z,8.33
2017-05-11T01:56:02.011Z,8.40
2017-05-11T01:57:03.454Z,8.50
2017-05-11T01:58:04.881Z,8.73
2017-05-11T01:59:06.298Z,8.37
2017-05-11T02:00:07.718Z,8.32
2017-05-11T02:01:09.144Z,8.42
2017-05-11T02:02:10.568Z,8.36
2017-05-11T02:03:11.990Z,8.30
2017-05-11T02:04:13.405Z,8.00
2017-05-11T02:05:14.823Z,8.14
2017-05-11T02:06:16.251Z,7.94
2017-05-11T02:07:17.673Z,7.96
2017-05-11T02:08:19.107Z,8.02
2017-05-11T02:09:20.568Z,8.15
2017-05-11T02:10:21.955Z,8.11
2017-05-11T02:11:23.378Z,7.96
2017-05-11T02:12:24.826Z,7.96
2017-05-11T02:13:26.351Z,7.84
2017-05-11T02:14:27.772Z,7.78
2017-05-11T02:15:29.195Z,7.89
2017-05-11T02:16:30.629Z,7.71
2017-05-11T02:17:32.139Z,7.74
2017-05-11T02:18:33.563Z,7.94
2017-05-11T02:19:34.994Z,7.79
2017-05-11T02:20:36.496Z,7.81
2017-05-11T02:21:37.913Z,7.72
2017-05-11T02:22:39.340Z,7.82
2017-05-11T02:23:40.757Z,7.71
2017-05-11T02:24:42.182Z,7.42
2017-05-11T02:25:43.595Z,7.13
2017-05-11T02:26:45.020Z,7.37
2017-05-11T02:27:46.440Z,7.34
2017-05-11T02:28:47.860Z,7.35
2017-05-11T02:29:49.288Z,7.53
2017-05-11T02:30:50.704Z,7.29
2017-05-11T02:31:52.126Z,7.49
2017-05-11T02:32:53.548Z,7.71
2017-05-11T02:33:54.973Z,7.82
2017-05-11T02:34:56.391Z,7.81
2017-05-11T02:35:57.814Z,7.97
2017-05-11T02:36:59.234Z,7.99
2017-05-11T02:38:00.658Z,7.60
2017-05-11T02:39:02.069Z,7.55
2017-05-11T02:40:03.499Z,7.40
2017-05-11T02:41:04.923Z,7.60
2017-05-11T02:42:06.341Z,7.56
2017-05-11T02:43:07.767Z,7.59
2017-05-11T02:44:09.188Z,7.56
2017-05-11T02:45:10.612Z,7.58
2017-05-11T02:46:12.029Z,7.81
2017-05-11T02:47:13.449Z,7.44
2017-05-11T02:48:14.866Z,7.55
2017-05-11T02:49:16.300Z,7.56
2017-05-11T02:50:17.729Z,7.71
2017-05-11T02:51:19.154Z,7.56
2017-05-11T02:52:20.581Z,7.41
2017-05-11T02:53:21.999Z,7.53
2017-05-11T02:54:23.420Z,7.78
2017-05-11T02:55:24.835Z,7.66
2017-05-11T02:56:26.258Z,7.45
2017-05-11T02:57:27.689Z,7.56
2017-05-11T02:58:29.111Z,7.44
2017-05-11T02:59:30.536Z,7.35
2017-05-11T03:00:31.957Z,7.45
2017-05-11T03:01:33.379Z,7.42
2017-05-11T03:02:34.801Z,7.29
2017-05-11T03:03:36.223Z,7.53
2017-05-11T03:04:37.651Z,7.59
2017-05-11T03:05:39.066Z,7.40
2017-05-11T03:06:40.484Z,7.35
2017-05-11T03:07:41.905Z,7.40
2017-05-11T03:08:43.327Z,7.40
2017-05-11T03:09:44.746Z,7.49
2017-05-11T03:10:46.184Z,7.53
2017-05-11T03:11:47.606Z,7.52
2017-05-11T03:12:49.026Z,7.58
2017-05-11T03:13:50.442Z,7.62
2017-05-11T03:14:51.866Z,7.75
2017-05-11T03:15:53.291Z,7.81
2017-05-11T03:16:54.714Z,7.53
2017-05-11T03:17:56.136Z,7.60
2017-05-11T03:18:57.565Z,7.72
2017-05-11T03:19:58.994Z,7.71
2017-05-11T03:21:00.419Z,7.55
2017-05-11T03:22:01.844Z,7.38
2017-05-11T03:23:03.261Z,7.42
2017-05-11T03:24:04.686Z,7.40
2017-05-11T03:25:06.114Z,7.23
2017-05-11T03:26:07.536Z,7.17
2017-05-11T03:27:08.954Z,6.95
2017-05-11T03:28:10.370Z,6.97
2017-05-11T03:29:11.790Z,6.80
2017-05-11T03:30:13.211Z,6.89
2017-05-11T03:31:14.632Z,6.87
2017-05-11T03:32:16.056Z,7.04
2017-05-11T03:33:17.474Z,7.08
2017-05-11T03:34:18.897Z,6.98
2017-05-11T03:35:20.321Z,6.95
2017-05-11T03:36:21.743Z,6.90
2017-05-11T03:37:23.165Z,6.91
2017-05-11T03:38:24.580Z,6.68
2017-05-11T03:39:26.000Z,6.80
2017-05-11T03:40:27.417Z,6.69
2017-05-11T03:41:28.840Z,6.90
2017-05-11T03:42:30.261Z,7.05
2017-05-11T03:43:31.678Z,6.98
2017-05-11T03:44:33.100Z,7.05
2017-05-11T03:45:34.527Z,7.07
2017-05-11T03:46:35.937Z,7.08
2017-05-11T03:47:37.361Z,7.01
2017-05-11T03:48:38.794Z,6.77
2017-05-11T03:49:40.211Z,6.83
2017-05-11T03:50:41.641Z,7.02
2017-05-11T03:51:43.061Z,7.13
2017-05-11T03:52:44.480Z,7.16
2017-05-11T03:53:45.900Z,7.02
2017-05-11T03:54:47.321Z,7.07
2017-05-11T03:55:48.779Z,7.16
2017-05-11T03:56:50.192Z,7.20
2017-05-11T03:57:51.625Z,7.01
2017-05-11T03:58:53.047Z,7.16
2017-05-11T03:59:54.487Z,7.04
2017-05-11T04:00:55.907Z,7.20
2017-05-11T04:01:57.337Z,7.38
2017-05-11T04:02:58.762Z,7.29
2017-05-11T04:04:00.180Z,7.19
2017-05-11T04:05:01.614Z,7.17
2017-05-11T04:06:03.034Z,7.29
2017-05-11T04:07:04.469Z,7.08
2017-05-11T04:08:05.895Z,7.22
2017-05-11T04:09:07.320Z,7.26
2017-05-11T04:10:08.747Z,7.20
2017-05-11T04:11:10.171Z,7.29
2017-05-11T04:12:11.605Z,7.32
2017-05-11T04:13:13.029Z,7.34
2017-05-11T04:14:14.458Z,7.37
2017-05-11T04:15:15.870Z,7.40
2017-05-11T04:16:17.303Z,7.47
2017-05-11T04:17:18.733Z,7.56
2017-05-11T04:18:20.151Z,7.44
2017-05-11T04:19:21.575Z,7.44
2017-05-11T04:20:23.002Z,7.42
2017-05-11T04:21:24.435Z,7.20
2017-05-11T04:22:25.865Z,7.29
2017-05-11T04:23:27.293Z,7.19
2017-05-11T04:24:28.723Z,7.05
2017-05-11T04:25:30.153Z,7.07
2017-05-11T04:26:31.576Z,7.07
2017-05-11T04:27:33.003Z,7.17
2017-05-11T04:28:34.425Z,7.19
2017-05-11T04:29:35.850Z,7.37
2017-05-11T04:30:37.277Z,7.44
2017-05-11T04:31:38.700Z,7.40
2017-05-11T04:32:40.127Z,7.66
2017-05-11T04:33:41.549Z,7.71
2017-05-11T04:34:42.973Z,7.89
2017-05-11T04:35:44.403Z,7.74
2017-05-11T04:36:45.823Z,7.84
2017-05-11T04:37:47.252Z,7.75
2017-05-11T04:38:48.677Z,7.60
2017-05-11T04:39:50.101Z,7.59
2017-05-11T04:40:51.530Z,7.62
2017-05-11T04:41:52.953Z,7.71
2017-05-11T04:42:54.384Z,7.81
2017-05-11T04:43:55.807Z,7.75
2017-05-11T04:44:57.234Z,7.74
2017-05-11T04:45:58.665Z,7.78
2017-05-11T04:47:00.087Z,7.87
2017-05-11T04:48:01.513Z,8.02
2017-05-11T04:49:02.936Z,8.03
2017-05-11T04:50:04.366Z,8.03
2017-05-11T04:51:05.789Z,8.12
2017-05-11T04:52:07.214Z,8.20
2017-05-11T04:53:08.643Z,8.20
2017-05-11T04:54:10.070Z,8.28
2017-05-11T04:55:11.611Z,8.33
2017-05-11T04:56:13.038Z,8.53
2017-05-11T04:57:14.464Z,8.57
2017-05-11T04:58:15.890Z,8.76
2017-05-11T04:59:17.319Z,8.78
2017-05-11T05:00:18.747Z,8.83
2017-05-11T05:01:20.269Z,8.97
2017-05-11T05:02:21.690Z,8.94
2017-05-11T05:03:23.116Z,9.09
2017-05-11T05:04:25.203Z,9.12
2017-05-11T05:05:26.633Z,9.13
2017-05-11T05:06:28.055Z,9.23
2017-05-11T05:07:29.475Z,9.32
2017-05-11T05:08:30.910Z,9.31
2017-05-11T05:09:32.345Z,9.30
2017-05-11T05:10:33.766Z,9.38
2017-05-11T05:11:35.190Z,9.42
2017-05-11T05:12:36.611Z,9.39
2017-05-11T05:13:38.036Z,9.50
2017-05-11T05:14:39.462Z,9.57
2017-05-11T05:15:40.887Z,9.53
2017-05-11T05:16:42.310Z,9.52
2017-05-11T05:17:43.734Z,9.70
2017-05-11T05:18:45.159Z,9.81
2017-05-11T05:19:46.586Z,9.81
2017-05-11T05:20:48.016Z,9.79
2017-05-11T05:21:49.433Z,9.96
2017-05-11T05:22:50.854Z,9.88
2017-05-11T05:23:52.278Z,10.09
2017-05-11T05:24:53.715Z,9.93
2017-05-11T05:25:55.135Z,10.04
2017-05-11T05:26:56.561Z,10.09
2017-05-11T05:27:57.992Z,10.10
2017-05-11T05:28:59.413Z,10.09
2017-05-11T05:30:00.853Z,10.09
2017-05-11T05:31:02.283Z,10.17
2017-05-11T05:32:04.545Z,10.21
2017-05-11T05:33:05.969Z,10.26
2017-05-11T05:34:07.401Z,10.37
2017-05-11T05:35:08.823Z,10.37
2017-05-11T05:36:10.249Z,10.28
2017-05-11T05:37:11.677Z,10.32
2017-05-11T05:38:13.104Z,10.36
2017-05-11T05:39:14.527Z,10.39
2017-05-11T05:40:15.972Z,10.62
2017-05-11T05:41:17.395Z,10.52
2017-05-11T05:42:18.828Z,10.70
2017-05-11T05:43:20.258Z,10.71
2017-05-11T05:44:21.698Z,10.73
2017-05-11T05:45:23.112Z,10.71
2017-05-11T05:46:24.538Z,10.71
2017-05-11T05:47:25.963Z,10.65
2017-05-11T05:48:27.393Z,10.66
2017-05-11T05:49:28.819Z,10.83
2017-05-11T05:50:30.248Z,10.91
2017-05-11T05:51:31.672Z,10.98
2017-05-11T05:52:33.102Z,10.99
2017-05-11T05:53:34.528Z,11.01
2017-05-11T05:54:35.956Z,11.09
2017-05-11T05:55:37.388Z,11.10
2017-05-11T05:56:38.806Z,11.13
2017-05-11T05:57:40.231Z,11.20
2017-05-11T05:58:41.655Z,11.19
2017-05-11T05:59:43.090Z,11.25
2017-05-11T06:00:44.515Z,11.34
2017-05-11T06:01:45.953Z,11.46
2017-05-11T06:02:47.372Z,11.43
2017-05-11T06:03:48.799Z,11.47
2017-05-11T06:04:50.223Z,11.43
2017-05-11T06:05:51.672Z,11.47
2017-05-11T06:06:53.104Z,11.59
2017-05-11T06:07:54.537Z,11.61
2017-05-11T06:08:55.969Z,11.64
2017-05-11T06:09:57.397Z,11.72
2017-05-11T06:10:58.824Z,11.61
2017-05-11T06:12:00.255Z,11.71
2017-05-11T06:13:01.677Z,11.77
2017-05-11T06:14:04.012Z,11.86
2017-05-11T06:15:05.443Z,11.83
2017-05-11T06:16:06.879Z,11.86
2017-05-11T06:17:08.305Z,11.86
2017-05-11T06:18:09.733Z,11.80
2017-05-11T06:19:11.170Z,11.87
2017-05-11T06:20:12.588Z,12.01
2017-05-11T06:21:14.019Z,11.93
2017-05-11T06:22:15.454Z,12.06
2017-05-11T06:23:16.877Z,12.13
2017-05-11T06:24:18.302Z,12.27
2017-05-11T06:25:19.732Z,12.21
2017-05-11T06:26:21.156Z,12.21
2017-05-11T06:27:22.588Z,12.15
2017-05-11T06:28:24.019Z,12.31
2017-05-11T06:29:25.444Z,12.37
2017-05-11T06:30:26.879Z,12.49
2017-05-11T06:31:28.303Z,12.39
2017-05-11T06:32:29.733Z,12.48
2017-05-11T06:33:31.165Z,12.71
2017-05-11T06:34:32.598Z,12.69
2017-05-11T06:35:34.026Z,12.74
2017-05-11T06:36:35.455Z,12.77
2017-05-11T06:37:36.883Z,12.81
2017-05-11T06:38:38.311Z,12.89
2017-05-11T06:39:39.739Z,12.95
2017-05-11T06:40:41.173Z,12.84
2017-05-11T06:41:42.596Z,12.97
2017-05-11T06:42:44.030Z,13.06
2017-05-11T06:43:45.455Z,13.17
2017-05-11T06:44:46.885Z,13.29
2017-05-11T06:45:48.309Z,13.30
2017-05-11T06:46:49.741Z,13.38
2017-05-11T06:47:51.175Z,13.43
2017-05-11T06:48:52.595Z,13.36
2017-05-11T06:49:54.020Z,13.41
2017-05-11T06:50:55.451Z,13.41
2017-05-11T06:51:56.880Z,13.56
2017-05-11T06:52:58.306Z,13.73
2017-05-11T06:53:59.740Z,13.69
2017-05-11T06:55:01.168Z,13.73
2017-05-11T06:56:02.600Z,13.88
2017-05-11T06:57:04.027Z,13.94
2017-05-11T06:58:05.457Z,13.84
2017-05-11T06:59:06.888Z,13.91
2017-05-11T07:00:08.321Z,14.06
2017-05-11T07:01:09.738Z,14.16
2017-05-11T07:02:11.172Z,14.25
2017-05-11T07:03:12.607Z,14.32
2017-05-11T07:04:14.045Z,14.34
2017-05-11T07:05:15.474Z,14.32
2017-05-11T07:06:16.897Z,14.43
2017-05-11T07:07:18.325Z,14.57
2017-05-11T07:08:19.760Z,14.60
2017-05-11T07:09:21.198Z,14.71
2017-05-11T07:10:22.628Z,14.80
2017-05-11T07:11:24.051Z,14.87
2017-05-11T07:12:25.481Z,14.90
2017-05-11T07:13:26.912Z,15.01
2017-05-11T07:14:28.350Z,15.02
2017-05-11T07:15:29.783Z,15.13
2017-05-11T07:16:31.226Z,15.23
2017-05-11T07:17:32.660Z,15.28
2017-05-11T07:18:34.084Z,15.28
2017-05-11T07:19:35.515Z,15.46
2017-05-11T07:20:36.975Z,15.45
2017-05-11T07:21:38.887Z,15.57
2017-05-11T07:22:40.310Z,15.64
2017-05-11T07:23:41.747Z,15.70
2017-05-11T07:24:43.178Z,15.72
2017-05-11T07:25:44.602Z,15.76
2017-05-11T07:26:46.036Z,15.88
2017-05-11T07:27:47.475Z,15.86
2017-05-11T07:28:48.905Z,15.93
2017-05-11T07:29:50.335Z,16.15
2017-05-11T07:30:51.769Z,16.27
2017-05-11T07:31:53.198Z,16.38
2017-05-11T07:32:54.635Z,16.26
2017-05-11T07:33:56.070Z,16.31
2017-05-11T07:34:57.501Z,16.49
2017-05-11T07:35:58.934Z,16.55
2017-05-11T07:37:00.362Z,16.59
2017-05-11T07:38:01.797Z,16.55
2017-05-11T07:39:03.226Z,16.56
2017-05-11T07:40:04.653Z,16.56
2017-05-11T07:41:06.093Z,16.67
2017-05-11T07:42:07.521Z,16.71
2017-05-11T07:43:08.956Z,16.80
2017-05-11T07:44:10.389Z,16.89
2017-05-11T07:45:11.819Z,16.98
2017-05-11T07:46:13.259Z,16.99
2017-05-11T07:47:14.684Z,17.04
2017-05-11T07:48:16.117Z,16.99
2017-05-11T07:49:17.544Z,17.13
2017-05-11T07:50:18.976Z,17.06
2017-05-11T07:51:20.404Z,17.29
2017-05-11T07:52:21.832Z,17.43
2017-05-11T07:53:23.269Z,17.53
2017-05-11T07:54:24.700Z,17.48
2017-05-11T07:55:26.135Z,17.33
2017-05-11T07:56:27.568Z,17.53
2017-05-11T07:57:28.995Z,17.71
2017-05-11T07:58:30.427Z,17.76
2017-05-11T07:59:31.862Z,17.71
2017-05-11T08:00:33.294Z,17.84
2017-05-11T08:01:34.736Z,17.97
2017-05-11T08:02:36.164Z,18.02
2017-05-11T08:03:37.597Z,17.99
2017-05-11T08:04:39.028Z,18.04
2017-05-11T08:05:40.467Z,18.00
2017-05-11T08:06:41.894Z,18.18
2017-05-11T08:07:43.349Z,18.33
2017-05-11T08:08:44.780Z,18.19
2017-05-11T08:09:46.209Z,18.18
2017-05-11T08:10:47.643Z,18.24
2017-05-11T08:11:49.134Z,18.39
2017-05-11T08:12:50.569Z,18.29
2017-05-11T08:13:52.001Z,18.55
2017-05-11T08:14:53.436Z,18.55
2017-05-11T08:15:54.877Z,18.64
2017-05-11T08:16:56.308Z,18.80
2017-05-11T08:17:57.746Z,18.87
2017-05-11T08:18:59.188Z,18.90
2017-05-11T08:20:00.620Z,18.91
2017-05-11T08:21:02.043Z,18.91
2017-05-11T08:22:03.480Z,18.94
2017-05-11T08:23:04.907Z,18.98
2017-05-11T08:24:06.338Z,19.05
2017-05-11T08:25:07.772Z,19.21
2017-05-11T08:26:09.204Z,19.29
2017-05-11T08:27:10.642Z,19.35
2017-05-11T08:28:12.078Z,19.39
2017-05-11T08:29:13.515Z,19.38
2017-05-11T08:30:14.947Z,19.40
2017-05-11T08:31:16.380Z,19.48
2017-05-11T08:32:17.818Z,19.63
2017-05-11T08:33:19.248Z,19.69
2017-05-11T08:34:20.679Z,19.54
2017-05-11T08:35:22.152Z,19.57
2017-05-11T08:36:23.587Z,19.88
2017-05-11T08:37:25.025Z,19.86
2017-05-11T08:38:26.459Z,19.95
2017-05-11T08:39:27.887Z,20.03
2017-05-11T08:40:29.327Z,20.02
2017-05-11T08:41:30.770Z,20.15
2017-05-11T08:42:32.213Z,20.15
2017-05-11T08:43:33.649Z,20.06
2017-05-11T08:44:35.076Z,19.91
2017-05-11T08:45:36.512Z,19.87
2017-05-11T08:46:37.950Z,19.75
2017-05-11T08:47:39.388Z,19.86
2017-05-11T08:48:40.821Z,19.86
2017-05-11T08:49:42.289Z,19.86
2017-05-11T08:50:43.725Z,19.95
2017-05-11T08:51:45.158Z,19.93
2017-05-11T08:52:46.595Z,20.03
2017-05-11T08:53:48.092Z,19.83
2017-05-11T08:54:49.525Z,19.80
2017-05-11T08:55:50.962Z,19.79
2017-05-11T08:56:52.399Z,19.75
2017-05-11T08:57:53.838Z,19.76
2017-05-11T08:58:55.272Z,19.78
2017-05-11T08:59:56.716Z,19.78
2017-05-11T09:00:58.159Z,19.84
2017-05-11T09:01:59.602Z,19.84
2017-05-11T09:03:01.033Z,19.78
2017-05-11T09:04:02.571Z,19.87
2017-05-11T09:05:03.998Z,19.80
2017-05-11T09:06:05.440Z,19.86
2017-05-11T09:07:06.924Z,19.84
2017-05-11T09:08:08.356Z,19.84
2017-05-11T09:09:09.788Z,19.66
2017-05-11T09:10:11.222Z,19.70
2017-05-11T09:11:12.662Z,19.97
2017-05-11T09:12:14.100Z,19.87
2017-05-11T09:13:15.538Z,19.80
2017-05-11T09:14:16.967Z,19.75
2017-05-11T09:15:18.406Z,19.87
2017-05-11T09:16:19.856Z,19.90
2017-05-11T09:17:21.287Z,19.70
2017-05-11T09:18:22.787Z,19.84
2017-05-11T09:19:24.225Z,19.94
2017-05-11T09:20:25.661Z,19.94
2017-05-11T09:21:27.092Z,20.00
2017-05-11T09:22:28.524Z,20.06
2017-05-11T09:23:29.962Z,20.18
2017-05-11T09:24:31.396Z,20.05
2017-05-11T09:25:32.839Z,20.25
2017-05-11T09:26:34.271Z,20.16
2017-05-11T09:27:35.705Z,20.27
2017-05-11T09:28:37.146Z,20.21
2017-05-11T09:29:38.577Z,20.39
2017-05-11T09:30:40.756Z,20.46
2017-05-11T09:31:42.194Z,20.53
2017-05-11T09:32:43.629Z,20.64
2017-05-11T09:33:45.062Z,20.66
2017-05-11T09:34:46.504Z,20.90
2017-05-11T09:35:47.947Z,20.98
2017-05-11T09:36:49.399Z,21.23
2017-05-11T09:37:50.834Z,21.44
2017-05-11T09:38:52.265Z,21.56
2017-05-11T09:39:53.710Z,21.75
2017-05-11T09:40:55.726Z,21.57
2017-05-11T09:41:57.161Z,21.64
2017-05-11T09:42:58.601Z,21.98
2017-05-11T09:44:00.041Z,22.02
2017-05-11T09:45:01.484Z,22.14
2017-05-11T09:46:02.923Z,22.29
2017-05-11T09:47:04.358Z,22.41
2017-05-11T09:48:05.793Z,22.39
2017-05-11T09:49:07.238Z,22.28
2017-05-11T09:50:08.669Z,22.25
2017-05-11T09:51:10.105Z,22.25
2017-05-11T09:52:11.543Z,22.27
2017-05-11T09:53:12.980Z,22.22
2017-05-11T09:54:14.418Z,22.09
2017-05-11T09:55:15.854Z,21.99
2017-05-11T09:56:17.293Z,22.01
2017-05-11T09:57:18.729Z,22.22
2017-05-11T09:58:20.167Z,22.14
2017-05-11T09:59:21.609Z,22.25
2017-05-11T10:00:23.049Z,22.29
2017-05-11T10:01:24.484Z,22.43
2017-05-11T10:02:25.924Z,22.35
2017-05-11T10:03:27.352Z,22.47
2017-05-11T10:04:28.792Z,22.54
2017-05-11T10:05:30.228Z,22.49
2017-05-11T10:06:31.661Z,22.80
2017-05-11T10:07:33.105Z,22.71
2017-05-11T10:08:35.401Z,22.90
2017-05-11T10:09:36.831Z,23.05
2017-05-11T10:10:38.273Z,23.02
2017-05-11T10:11:39.715Z,23.23
2017-05-11T10:12:41.153Z,23.34
2017-05-11T10:13:42.632Z,23.05
2017-05-11T10:14:44.136Z,22.89
2017-05-11T10:15:45.577Z,22.74
2017-05-11T10:16:47.016Z,22.82
2017-05-11T10:17:48.473Z,22.80
2017-05-11T10:18:49.915Z,23.07
2017-05-11T10:19:51.352Z,23.32
2017-05-11T10:20:52.787Z,23.65
2017-05-11T10:21:54.229Z,23.70
2017-05-11T10:22:55.666Z,23.71
2017-05-11T10:23:57.189Z,23.79
2017-05-11T10:24:58.635Z,23.90
2017-05-11T10:26:00.076Z,24.08
2017-05-11T10:27:01.516Z,23.94
2017-05-11T10:28:02.951Z,23.94
2017-05-11T10:29:04.389Z,23.95
2017-05-11T10:30:05.832Z,24.05
2017-05-11T10:31:07.277Z,24.02
2017-05-11T10:32:08.720Z,24.16
2017-05-11T10:33:10.155Z,24.23
2017-05-11T10:34:11.593Z,24.04
2017-05-11T10:35:13.032Z,24.00
2017-05-11T10:36:14.467Z,23.95
2017-05-11T10:37:15.906Z,24.04
2017-05-11T10:38:17.342Z,24.23
2017-05-11T10:39:18.815Z,24.10
2017-05-11T10:40:20.248Z,24.05
2017-05-11T10:41:21.691Z,23.94
2017-05-11T10:42:23.132Z,23.70
2017-05-11T10:43:24.572Z,23.72
2017-05-11T10:44:26.012Z,23.64
2017-05-11T10:45:27.457Z,23.76
2017-05-11T10:46:28.895Z,23.76
2017-05-11T10:47:30.335Z,23.60
2017-05-11T10:48:31.777Z,23.68
2017-05-11T10:49:33.209Z,23.87
2017-05-11T10:50:34.681Z,24.08
2017-05-11T10:51:36.113Z,23.94
2017-05-11T10:52:37.551Z,24.04
2017-05-11T10:53:38.999Z,23.94
2017-05-11T10:54:40.442Z,23.92
2017-05-11T10:55:41.889Z,24.08
2017-05-11T10:56:43.323Z,23.92
2017-05-11T10:57:44.777Z,24.14
2017-05-11T10:58:46.230Z,23.97
2017-05-11T10:59:47.673Z,24.22
2017-05-11T11:00:49.112Z,24.60
2017-05-11T11:01:50.555Z,23.98
2017-05-11T11:02:51.991Z,24.39
2017-05-11T11:03:53.440Z,24.49
2017-05-11T11:04:54.873Z,24.94
2017-05-11T11:05:56.319Z,24.85
2017-05-11T11:06:57.755Z,24.87
2017-05-11T11:07:59.204Z,24.79
2017-05-11T11:09:00.654Z,24.73
2017-05-11T11:10:02.079Z,24.41
2017-05-11T11:11:03.513Z,23.87
2017-05-11T11:12:04.949Z,23.97
2017-05-11T11:13:06.430Z,24.12
2017-05-11T11:14:07.916Z,24.38
2017-05-11T11:15:09.352Z,24.63
2017-05-11T11:16:10.793Z,24.80
2017-05-11T11:17:12.229Z,25.30
2017-05-11T11:18:13.669Z,25.65
2017-05-11T11:19:15.101Z,25.56
2017-05-11T11:20:16.538Z,25.72
2017-05-11T11:21:17.987Z,25.62
2017-05-11T11:22:19.427Z,25.56
2017-05-11T11:23:20.868Z,24.82
2017-05-11T11:24:22.320Z,25.07
2017-05-11T11:25:23.764Z,24.82
2017-05-11T11:26:25.205Z,24.82
2017-05-11T11:27:26.647Z,25.06
2017-05-11T11:28:28.096Z,25.24
2017-05-11T11:29:29.536Z,25.35
2017-05-11T11:30:30.976Z,25.35
2017-05-11T11:31:32.422Z,25.07
2017-05-11T11:32:33.862Z,24.67
2017-05-11T11:33:35.296Z,24.42
2017-05-11T11:34:36.736Z,24.20
2017-05-11T11:35:38.265Z,24.22
2017-05-11T11:36:40.465Z,24.59
2017-05-11T11:37:41.904Z,24.94
2017-05-11T11:38:43.373Z,25.24
2017-05-11T11:39:44.804Z,25.24
2017-05-11T11:40:46.245Z,25.65
2017-05-11T11:41:47.687Z,25.90
2017-05-11T11:42:49.122Z,25.84
2017-05-11T11:43:50.565Z,25.69
2017-05-11T11:44:52.000Z,25.72
2017-05-11T11:45:53.444Z,25.74
2017-05-11T11:46:54.887Z,26.04
2017-05-11T11:47:56.327Z,26.01
2017-05-11T11:48:57.766Z,26.27
2017-05-11T11:49:59.203Z,26.08
2017-05-11T11:51:00.650Z,25.89
2017-05-11T11:52:02.096Z,25.65
2017-05-11T11:53:03.537Z,25.72
2017-05-11T11:54:04.978Z,25.86
2017-05-11T11:55:06.424Z,26.17
2017-05-11T11:56:07.853Z,26.04
2017-05-11T11:57:09.303Z,26.15
2017-05-11T11:58:10.741Z,26.47
2017-05-11T11:59:12.177Z,26.25
2017-05-11T12:00:13.617Z,26.01
2017-05-11T12:01:15.055Z,25.69
2017-05-11T12:02:16.509Z,25.34
2017-05-11T12:03:17.952Z,24.92
2017-05-11T12:04:19.387Z,24.83
2017-05-11T12:05:20.828Z,24.87
2017-05-11T12:06:22.271Z,25.01
2017-05-11T12:07:23.703Z,24.94
2017-05-11T12:08:25.147Z,25.22
2017-05-11T12:09:26.585Z,25.25
2017-05-11T12:10:28.023Z,25.38
2017-05-11T12:11:29.465Z,25.42
2017-05-11T12:12:30.910Z,25.67
2017-05-11T12:13:32.365Z,25.38
2017-05-11T12:14:33.804Z,25.86
2017-05-11T12:15:35.250Z,26.09
2017-05-11T12:16:36.695Z,26.08
2017-05-11T12:17:38.135Z,26.09
2017-05-11T12:18:39.581Z,26.36
2017-05-11T12:19:41.022Z,26.36
2017-05-11T12:20:42.457Z,26.73
2017-05-11T12:21:43.897Z,26.95
2017-05-11T12:22:45.341Z,26.96
2017-05-11T12:23:46.774Z,26.92
2017-05-11T12:24:48.740Z,27.04
2017-05-11T12:25:50.183Z,26.68
2017-05-11T12:26:51.629Z,26.44
2017-05-11T12:27:53.066Z,26.46
2017-05-11T12:28:54.501Z,26.55
2017-05-11T12:29:55.941Z,26.50
2017-05-11T12:30:57.385Z,26.20
2017-05-11T12:31:58.824Z,26.27
2017-05-11T12:33:00.259Z,25.98
2017-05-11T12:34:01.698Z,25.99
2017-05-11T12:35:03.953Z,25.65
2017-05-11T12:36:04.539Z,25.69
2017-05-11T12:37:05.982Z,25.94
2017-05-11T12:38:07.421Z,26.36
2017-05-11T12:39:08.864Z,26.50
2017-05-11T12:40:10.307Z,26.64
2017-05-11T12:41:11.745Z,26.36
2017-05-11T12:42:13.195Z,26.47
2017-05-11T12:43:14.626Z,26.29
2017-05-11T12:44:16.069Z,26.55
2017-05-11T12:45:17.512Z,26.49
2017-05-11T12:46:18.955Z,26.52
2017-05-11T12:47:20.400Z,26.62
2017-05-11T12:48:21.854Z,26.69
2017-05-11T12:49:23.300Z,26.79
2017-05-11T12:50:25.464Z,26.25
2017-05-11T12:51:26.144Z,26.24
2017-05-11T12:52:27.579Z,25.89
2017-05-11T12:53:29.023Z,26.27
2017-05-11T12:54:30.469Z,26.02
2017-05-11T12:55:31.905Z,26.24
2017-05-11T12:56:33.348Z,26.39
2017-05-11T12:57:34.791Z,26.42
2017-05-11T12:58:36.228Z,26.15
2017-05-11T12:59:37.675Z,25.83
2017-05-11T13:00:39.115Z,25.54
2017-05-11T13:01:40.553Z,25.39
2017-05-11T13:02:41.999Z,25.44
2017-05-11T13:03:43.433Z,25.54
2017-05-11T13:04:44.878Z,25.84
2017-05-11T13:05:46.317Z,25.49
2017-05-11T13:06:47.754Z,25.39
2017-05-11T13:07:49.199Z,25.12
2017-05-11T13:08:50.639Z,24.73
2017-05-11T13:09:52.075Z,24.45
2017-05-11T13:10:53.519Z,24.75
2017-05-11T13:11:54.961Z,24.97
2017-05-11T13:12:57.161Z,25.42
2017-05-11T13:13:58.608Z,25.42
2017-05-11T13:15:00.041Z,25.39
2017-05-11T13:16:01.485Z,25.20
2017-05-11T13:17:02.927Z,25.27
2017-05-11T13:18:04.379Z,25.16
2017-05-11T13:19:05.816Z,25.19
2017-05-11T13:20:07.266Z,25.42
2017-05-11T13:21:08.704Z,25.30